Startpagina
METAR-TAF:

METAR-TAF

Vliegvelden :

Birmingham Airport

Birmingham, Engeland

breedte: 52-27N, lengte: 001-44W, hoogte: 99 m

Actueel weer

Dit bericht is 29 minuten geleden gemaakt, om 02:20 UTC
Wind 3 kt uit het zuidzuidwesten
Temperatuur 1°C
Vochtigheid 80%
Druk 1025 hPa
Zicht 10 km of meer
Weinig wolken op 3000 ft

METAR: EGBB 120220Z 20003KT 9999 FEW030 01/M02 Q1025

Tijdstip: 03:49 (02:49 UTC)

Verwachting

Dit bericht is 3 uur en het 55 minuten geleden gemaakt, om 22:54 UTC
Verwachting geldig van 12 om 00 UTC tot 12 om 24 UTC
Wind 6 kt uit het westen
Zicht 10 km of meer
Verspreide wolken op 4500 ft
Kans 30% :
Tijdelijke
van 12 om 03 UTC tot 12 om 09 UTC
Zicht: 6000 m
Gebroken wolken op 800 ft
lichte regen, sneeuw
Tijdelijke
van 12 om 10 UTC tot 12 om 16 UTC
Zicht: 7000 m
Gebroken wolken op 1400 ft
regenbuien

TAF: EGBB 112254Z 1200/1224 28006KT 9999 SCT045 PROB30 TEMPO 1203/1209 6000 -RASN BKN008 TEMPO 1210/1216 7000 SHRA BKN014

Waarnemingen en weersverwachtingen van meer dan 4000 vliegvelden (METAR en TAF).

De beschikbare stations zijn de gele en rode punten op de kaart.

Ga met uw muis naar het station om de naam te zien.

Klik dan om waarnemingen en weersverwachtingen te zien.

kaart wijzigen: klik op de groene knoppen met een zwart kruis om in te zoomen, op de groene knop met een streepje om uit te zoomen of op de groene pijlen voor aangrenzende kaarten.


METAR-TAF: